Thunderstorms From: 22-05-2018 15:00 Until: 23-05-2018 15:00 warning for: Thunderstorms Level: Yellow info button

Although rather usual in this region, locally or potentially dangerous phenomena are expected. (such as local winds, summer thunderstorms, rising streams or high waves) Be aware and pay attention to the latest weather updates, especially if you carry out activities exposed to weather or close to a stream or shoreline. 


Meteo18 Weather Cam more information Meteo18 Weather Cam


warning for Thunderstorms more information blitzortung!


Rain radar more information rain snow radar


Visit our other weather sites:

Template documentation
and downloads

And another site



Weather Underground History page Text

Daily Summary for January 8, 2018 Units:  Metric    English   Both
« Previous Day
Next Day »
Daily Weekly Monthly Yearly Custom
  High: Low: Average:
Temperature: -17.8 °C -15 °C -13.9 °C
Dew Point: -17.8 °C -15.6 °C -14.8 °C
Humidity: Humidity % 86 % 90 %
Wind Speed: 0 km/h 0 km/h 9.8 km/h
Wind Gust: 0 km/h - -
Wind:- - ENE
Pressure: 0 hPa 34246 hPa -
Precipitation: 0 mm    
Historical Graphs
 
 
Tabular Data for January 8, 2018
Time Temperature Dew Point Pressure Wind Wind Speed Wind Gust Humidity Rainfall Rate (Hourly)
-17.8 °C -17.8 °C 0 hPa Calm     Humidity % 0 mm
00:04 -13.9 °C -14.7 °C 34371.3 hPa ENE 5.1 km/h 23.3 km/h 91 % 0 mm
00:11 -13.9 °C -14.6 °C 34371.3 hPa North 15.6 km/h 23.3 km/h 92 % 0 mm
00:16 -13.9 °C -14.7 °C 34371.3 hPa NNE 5.1 km/h 23.3 km/h 91 % 0 mm
00:18 -13.9 °C -14.7 °C 34371.3 hPa NNE 23 km/h 31.1 km/h 91 % 0 mm
00:22 -13.9 °C -14.7 °C 34371.3 hPa NE 12.7 km/h 25.9 km/h 91 % 0 mm
00:28 -13.9 °C -14.7 °C 34371.3 hPa NNE 12.7 km/h 31.1 km/h 91 % 0 mm
00:34 -13.9 °C -14.7 °C 34371.3 hPa NNE 12.7 km/h 28.5 km/h 91 % 0 mm
00:42 -13.9 °C -14.7 °C 34371.3 hPa NNE 26.2 km/h 26.2 km/h 91 % 0 mm
00:44 -13.9 °C -14.7 °C 34361.1 hPa NE 17.9 km/h 41.4 km/h 91 % 0 mm
00:50 -13.9 °C -14.7 °C 34361.1 hPa NE 10.3 km/h 31.1 km/h 91 % 0 mm
00:56 -13.9 °C -14.7 °C 34371.3 hPa NNE 20.9 km/h 20.9 km/h 91 % 0 mm
01:02 -13.9 °C -14.7 °C 34361.1 hPa NNE 20.9 km/h 36.2 km/h 91 % 0 mm
01:08 -14 °C -14.8 °C 34361.1 hPa NNE 10.3 km/h 28.5 km/h 91 % 0 mm
01:10 -14 °C -14.8 °C 34361.1 hPa NE 17.9 km/h 28.5 km/h 91 % 0 mm
01:16 -14 °C -14.8 °C 34361.1 hPa NNE 10.3 km/h 36.2 km/h 91 % 0 mm
01:26 -14 °C -14.8 °C 34347.6 hPa NNW 7.6 km/h 25.9 km/h 91 % 0 mm
01:32 -14 °C -14.8 °C 34347.6 hPa NNE 10.3 km/h 28.5 km/h 91 % 0 mm
01:38 -14 °C -14.8 °C 34361.1 hPa NE 20.9 km/h 31.1 km/h 91 % 0 mm
01:44 -14 °C -14.8 °C 34347.6 hPa NE 17.9 km/h 31.1 km/h 91 % 0 mm
01:52 -14.1 °C -14.8 °C 34347.6 hPa NE 10.3 km/h 31.1 km/h 91 % 0 mm
02:01 -14.1 °C -14.8 °C 34347.6 hPa NNE 17.9 km/h 25.9 km/h 91 % 0 mm
02:07 -14.1 °C -14.9 °C 34347.6 hPa NNE 15.6 km/h 28.5 km/h 91 % 0 mm
02:15 -14.1 °C -14.9 °C 34347.6 hPa NNW 10.3 km/h 33.6 km/h 91 % 0 mm
02:21 -14.1 °C -14.9 °C 34347.6 hPa North 17.9 km/h 28.5 km/h 91 % 0 mm
02:29 -14.1 °C -14.9 °C 34347.6 hPa NE 26.2 km/h 28.5 km/h 91 % 0 mm
02:36 -14.1 °C -14.8 °C 34347.6 hPa NNE 23 km/h 46.7 km/h 92 % 0 mm
02:41 -14.1 °C -14.9 °C 34347.6 hPa NE 17.9 km/h 28.5 km/h 91 % 0 mm
02:47 -14.1 °C -14.9 °C 34361.1 hPa NE 12.7 km/h 23.3 km/h 91 % 0 mm
02:53 -14.2 °C -14.8 °C 34371.3 hPa NE 15.6 km/h 18.2 km/h 92 % 0 mm
02:59 -14.2 °C -14.8 °C 34371.3 hPa North 5.1 km/h 18.2 km/h 92 % 0 mm
03:05 -14.2 °C -14.9 °C 34371.3 hPa NNE 5.1 km/h 25.9 km/h 92 % 0 mm
03:12 -14.2 °C -14.9 °C 34361.1 hPa NE 15.6 km/h 20.8 km/h 92 % 0 mm
03:18 -14.2 °C -14.9 °C 34371.3 hPa ENE 2.3 km/h 23.3 km/h 92 % 0 mm
03:21 -14.2 °C -14.9 °C 34371.3 hPa NNE 20.9 km/h 23.3 km/h 92 % 0 mm
03:27 -14.2 °C -14.9 °C 34361.1 hPa ENE 20.9 km/h 31.1 km/h 92 % 0 mm
03:36 -14.2 °C -14.9 °C 34361.1 hPa NNE 17.9 km/h 25.9 km/h 92 % 0 mm
03:41 -14.3 °C -14.9 °C 34361.1 hPa NE 17.9 km/h 28.5 km/h 92 % 0 mm
03:42 -14.3 °C -14.9 °C 34361.1 hPa NE 10.3 km/h 31.1 km/h 92 % 0 mm
03:48 -14.2 °C -14.9 °C 34361.1 hPa NE 15.6 km/h 31.1 km/h 92 % 0 mm
03:55 -14.3 °C -14.9 °C 34361.1 hPa NNE 7.6 km/h 31.1 km/h 92 % 0 mm
04:03 -14.3 °C -14.9 °C 34361.1 hPa NNE 17.9 km/h 33.6 km/h 92 % 0 mm
04:09 -14.3 °C -15 °C 34347.6 hPa NE 33.6 km/h 33.6 km/h 92 % 0 mm
04:17 -14.3 °C -15 °C 34361.1 hPa NE 12.7 km/h 25.9 km/h 92 % 0 mm
05:25 -14.6 °C -15.2 °C 34347.6 hPa NE 10.3 km/h 28.5 km/h 93 % 0 mm
08:07 -14.8 °C -15.4 °C 34347.6 hPa NNE 12.7 km/h 12.9 km/h 93 % 0 mm
10:08 -14.8 °C -15.3 °C 34371.3 hPa NE 5.1 km/h 10.3 km/h 94 % 0 mm
10:14 -14.8 °C -15.3 °C 34371.3 hPa Calm   2.6 km/h 94 % 0 mm
10:20 -14.7 °C -15.2 °C 34371.3 hPa NE 7.6 km/h 10.3 km/h 94 % 0 mm
10:26 -14.7 °C -15.2 °C 34371.3 hPa NNE 12.7 km/h 15.6 km/h 94 % 0 mm
10:32 -14.6 °C -15.1 °C 34371.3 hPa NNE 7.6 km/h 15.6 km/h 94 % 0 mm
10:40 -14.6 °C -15.1 °C 34371.3 hPa North 10.3 km/h 12.9 km/h 93 % 0 mm
10:46 -14.6 °C -15.1 °C 34371.3 hPa NE 7.6 km/h 10.3 km/h 93 % 0 mm
10:56 -14.5 °C -15.1 °C 34371.3 hPa ENE 2.3 km/h 7.7 km/h 93 % 0 mm
11:00 -14.4 °C -15 °C 34371.3 hPa Calm   5.1 km/h 93 % 0 mm
11:10 -14.2 °C -14.8 °C 34384.8 hPa Calm   7.7 km/h 93 % 0 mm
11:14 -14.2 °C -14.9 °C 34384.8 hPa NE 2.3 km/h 10.3 km/h 92 % 0 mm
11:16 -14.2 °C -14.9 °C 34384.8 hPa NNE 10.3 km/h 10.3 km/h 92 % 0 mm
11:24 -14.2 °C -14.8 °C 34384.8 hPa ENE 2.3 km/h 7.7 km/h 92 % 0 mm
11:30 -14.1 °C -14.9 °C 34384.8 hPa Calm   10.3 km/h 91 % 0 mm
11:36 -14.1 °C -14.8 °C 34384.8 hPa NE 7.6 km/h 10.3 km/h 91 % 0 mm
11:42 -14 °C -14.8 °C 34371.3 hPa NNE 17.9 km/h 18.2 km/h 90 % 0 mm
11:49 -14 °C -14.8 °C 34371.3 hPa NNE 10.3 km/h 20.8 km/h 90 % 0 mm
11:50 -13.8 °C -14.7 °C 34361.1 hPa ENE 5.1 km/h 20.8 km/h 90 % 0 mm
11:56 -13.7 °C -14.6 °C 34361.1 hPa ENE 10.3 km/h 12.9 km/h 90 % 0 mm
12:02 -13.6 °C -14.4 °C 34361.1 hPa North 7.6 km/h 10.3 km/h 90 % 0 mm
12:04 -13.5 °C -14.4 °C 34347.6 hPa NNE 5.1 km/h 18.2 km/h 89 % 0 mm
12:10 -13.5 °C -14.4 °C 34347.6 hPa ENE 2.3 km/h 15.6 km/h 89 % 0 mm
12:16 -13.5 °C -14.4 °C 34347.6 hPa NNW 7.6 km/h 18.2 km/h 89 % 0 mm
12:26 -13.5 °C -14.4 °C 34337.4 hPa NE 10.3 km/h 18.2 km/h 89 % 0 mm
12:30 -13.5 °C -14.6 °C 34347.6 hPa NE 15.6 km/h 18.2 km/h 88 % 0 mm
12:38 -13.6 °C -14.6 °C 34337.4 hPa North 5.1 km/h 18.2 km/h 88 % 0 mm
12:44 -13.6 °C -14.6 °C 34347.6 hPa ENE 5.1 km/h 10.3 km/h 88 % 0 mm
12:46 -13.5 °C -14.6 °C 34347.6 hPa East 2.3 km/h 7.7 km/h 88 % 0 mm
12:50 -13.4 °C -14.5 °C 34347.6 hPa East 2.3 km/h 7.7 km/h 88 % 0 mm
12:56 -13.4 °C -14.5 °C 34347.6 hPa ENE 7.6 km/h 15.6 km/h 88 % 0 mm
13:02 -13.5 °C -14.6 °C 34347.6 hPa East 7.6 km/h 12.9 km/h 88 % 0 mm
13:06 -13.5 °C -14.6 °C 34347.6 hPa ENE 2.3 km/h 5.1 km/h 88 % 0 mm
13:14 -13.4 °C -14.5 °C 34337.4 hPa East 5.1 km/h 15.6 km/h 88 % 0 mm
13:18 -13.4 °C -14.3 °C 34337.4 hPa NE 10.3 km/h 10.3 km/h 89 % 0 mm
13:24 -13.4 °C -14.4 °C 34337.4 hPa NNW 7.6 km/h 12.9 km/h 88 % 0 mm
13:26 -13.4 °C -14.4 °C 34337.4 hPa NE 12.7 km/h 15.6 km/h 88 % 0 mm
13:34 -13.4 °C -14.5 °C 34337.4 hPa NNE 15.6 km/h 20.8 km/h 88 % 0 mm
13:42 -13.4 °C -14.4 °C 34313.7 hPa North 17.9 km/h 18.2 km/h 89 % 0 mm
13:54 -13.3 °C -14.3 °C 34313.7 hPa NNE 17.9 km/h 20.8 km/h 88 % 0 mm
14:08 -13.2 °C -14.3 °C 34303.6 hPa NNE 15.6 km/h 25.9 km/h 88 % 0 mm
14:16 -13.2 °C -14.3 °C 34293.4 hPa NNE 20.9 km/h 28.5 km/h 88 % 0 mm
14:20 -13.2 °C -14.3 °C 34293.4 hPa NNW 12.7 km/h 31.1 km/h 88 % 0 mm
14:31 -13.2 °C -14.3 °C 34293.4 hPa ENE 10.3 km/h 23.3 km/h 88 % 0 mm
14:56 -13.1 °C -14.2 °C 34279.9 hPa NNW 10.3 km/h 36.2 km/h 87 % 0 mm
15:02 -13.1 °C -14.2 °C 34269.7 hPa NE 23 km/h 33.6 km/h 87 % 0 mm
15:10 -13.1 °C -14.3 °C 34279.9 hPa North 15.6 km/h 38.8 km/h 86 % 0 mm
15:26 -13.1 °C -14.3 °C 34279.9 hPa NNE 26.2 km/h 28.5 km/h 86 % 0 mm
16:37 -13 °C -14.1 °C 34313.7 hPa Calm   5.1 km/h 87 % 0 mm
16:38 -13.1 °C -14.2 °C 34313.7 hPa ESE 2.3 km/h 5.1 km/h 87 % 0 mm
16:59 -13.2 °C -14.3 °C 34293.4 hPa NNE 7.6 km/h 7.7 km/h 87 % 0 mm
17:14 -13.6 °C -14.5 °C 34293.4 hPa NNE 5.1 km/h 12.9 km/h 89 % 0 mm
17:25 -13.6 °C -14.4 °C 34293.4 hPa North 7.6 km/h 15.6 km/h 90 % 0 mm
17:31 -13.7 °C -14.6 °C 34279.9 hPa North 7.6 km/h 18.2 km/h 90 % 0 mm
17:37 -13.7 °C -14.6 °C 34279.9 hPa North 5.1 km/h 12.9 km/h 90 % 0 mm
17:43 -13.7 °C -14.6 °C 34293.4 hPa North 12.7 km/h 20.8 km/h 90 % 0 mm
17:45 -13.7 °C -14.6 °C 34279.9 hPa NNE 10.3 km/h 12.9 km/h 90 % 0 mm
17:49 -13.7 °C -14.6 °C 34279.9 hPa NE 12.7 km/h 18.2 km/h 90 % 0 mm
17:55 -13.8 °C -14.6 °C 34279.9 hPa NNE 20.9 km/h 20.9 km/h 91 % 0 mm
18:01 -13.8 °C -14.6 °C 34279.9 hPa NE 10.3 km/h 15.6 km/h 91 % 0 mm
18:05 -13.7 °C -14.5 °C 34279.9 hPa North 10.3 km/h 23.3 km/h 91 % 0 mm
18:11 -13.7 °C -14.5 °C 34293.4 hPa NE 10.3 km/h 10.3 km/h 91 % 0 mm
18:17 -13.8 °C -14.6 °C 34293.4 hPa NNW 5.1 km/h 7.7 km/h 91 % 0 mm
18:25 -13.8 °C -14.6 °C 34293.4 hPa NNW 5.1 km/h 12.9 km/h 91 % 0 mm
18:29 -13.8 °C -14.6 °C 34293.4 hPa NNE 7.6 km/h 7.7 km/h 91 % 0 mm
18:37 -13.8 °C -14.6 °C 34293.4 hPa NNW 5.1 km/h 7.7 km/h 91 % 0 mm
18:41 -13.8 °C -14.6 °C 34293.4 hPa NNE 7.6 km/h 15.6 km/h 91 % 0 mm
18:47 -13.8 °C -14.6 °C 34293.4 hPa NNE 10.3 km/h 18.2 km/h 91 % 0 mm
18:53 -13.8 °C -14.6 °C 34293.4 hPa NE 7.6 km/h 20.8 km/h 91 % 0 mm
18:59 -13.8 °C -14.7 °C 34293.4 hPa NNE 2.3 km/h 18.2 km/h 90 % 0 mm
19:07 -13.8 °C -14.7 °C 34293.4 hPa NNW 7.6 km/h 15.6 km/h 90 % 0 mm
19:15 -13.9 °C -14.7 °C 34293.4 hPa NE 2.3 km/h 12.9 km/h 91 % 0 mm
19:21 -13.9 °C -14.7 °C 34293.4 hPa North 7.6 km/h 15.6 km/h 91 % 0 mm
19:23 -14 °C -14.8 °C 34293.4 hPa NE 10.3 km/h 15.6 km/h 91 % 0 mm
19:29 -14 °C -14.8 °C 34279.9 hPa NE 2.3 km/h 10.3 km/h 91 % 0 mm
19:35 -14 °C -14.8 °C 34279.9 hPa NNW 2.3 km/h 10.3 km/h 91 % 0 mm
19:41 -14 °C -14.8 °C 34279.9 hPa NNE 5.1 km/h 7.7 km/h 90 % 0 mm
19:47 -14 °C -14.8 °C 34279.9 hPa Calm   10.3 km/h 91 % 0 mm
20:03 -14.1 °C -14.8 °C 34279.9 hPa North 7.6 km/h 20.8 km/h 91 % 0 mm
20:09 -14.1 °C -14.8 °C 34279.9 hPa NE 12.7 km/h 15.6 km/h 91 % 0 mm
20:15 -14.1 °C -14.9 °C 34279.9 hPa NE 7.6 km/h 12.9 km/h 90 % 0 mm
20:17 -14.1 °C -14.9 °C 34279.9 hPa NNE 2.3 km/h 7.7 km/h 90 % 0 mm
20:25 -14.1 °C -14.8 °C 34279.9 hPa NNE 2.3 km/h 2.6 km/h 91 % 0 mm
20:31 -14.1 °C -14.9 °C 34279.9 hPa Calm   2.6 km/h 90 % 0 mm
20:41 -14.1 °C -14.9 °C 34279.9 hPa Calm   2.6 km/h 90 % 0 mm
20:47 -14.1 °C -14.9 °C 34279.9 hPa Calm   2.6 km/h 91 % 0 mm
20:53 -14.2 °C -15 °C 34279.9 hPa North 7.6 km/h 7.7 km/h 91 % 0 mm
21:01 -14.2 °C -15 °C 34279.9 hPa North 2.3 km/h 10.3 km/h 91 % 0 mm
22:28 -14.5 °C -15.2 °C 34256.2 hPa ENE 5.1 km/h 12.9 km/h 92 % 0 mm
23:22 -14.7 °C -15.2 °C 34246 hPa NNE 2.3 km/h 5.1 km/h 93 % 0 mm
23:26 -14.7 °C -15.2 °C 34246 hPa Calm   2.6 km/h 93 % 0 mm
23:34 -14.8 °C -15.3 °C 34246 hPa Calm   2.6 km/h 93 % 0 mm
23:52 -15 °C -15.6 °C 34256.2 hPa Calm     93 % 0 mm
Meteo18
Compliments of Weather Underground - 4 mb

Script developed by  Jim McMurry - jmcmurry@mwt.net Adapted for the template by  Wim van der Kuil - Leuven-Template.eu

You find our weather info also at:

European Weather Network

Weather Underground

Equipment we use:

Weather-station
Davis Vue

Weather-program
Meteobridge

Weather-server
Raspberry PI 2 B+

Provider
1 and 1

Davis Vue

Meteobridge

Raspberry PI 2 B+

1 and 1